Terminal Aerodrome Forecast
Issued by NWS Wakefield, VA

Home | Current Version | Previous Version | Text Only | Print | Product List | Glossary On
Versions: 1 2 3 4 5 6 7 8 9 10 11 12 13 14 15 16
907
FTUS41 KAKQ 051739
TAFORF
TAF
KORF 051739Z 0518/0618 36010KT P6SM BKN005 BKN015
     FM051900 35009KT P6SM SCT012 SCT035
     FM052000 01009KT P6SM SCT200
     FM060800 05009KT P6SM OVC150
     FM061100 07009KT 5SM -RA BR SCT030 OVC050
     FM061400 09013G20KT 4SM -RA BR OVC030
     FM061500 10015G23KT 3SM RA BR OVC015=

USA.gov is the U.S. government's official web portal to all federal, state and local government web resources and services.